createdAt,value
2018-07-05T00:00:03.096Z,14.8
2018-07-05T00:15:02.395Z,14.8
2018-07-05T00:30:02.838Z,14.8
2018-07-05T00:45:03.162Z,14.7
2018-07-05T01:00:02.487Z,14.7
2018-07-05T01:15:02.785Z,14.7
2018-07-05T01:30:03.264Z,14.6
2018-07-05T01:45:02.582Z,14.6
2018-07-05T02:00:02.881Z,14.6
2018-07-05T02:15:03.224Z,14.6
2018-07-05T02:30:02.631Z,14.6
2018-07-05T02:45:02.983Z,14.5
2018-07-05T03:00:02.292Z,14.5
2018-07-05T03:15:02.596Z,14.4
2018-07-05T03:30:03.009Z,14.4
2018-07-05T03:45:02.320Z,14.4
2018-07-05T04:00:02.633Z,14.3
2018-07-05T04:15:02.978Z,14.3
2018-07-05T04:30:02.420Z,14.2
2018-07-05T04:45:02.758Z,14.2
2018-07-05T05:00:03.089Z,14.2
2018-07-05T05:15:02.476Z,14.2
2018-07-05T05:30:03.024Z,14.2
2018-07-05T05:45:02.400Z,14.2
2018-07-05T06:00:02.694Z,14.2
2018-07-05T06:15:03.008Z,14.2
2018-07-05T06:30:02.475Z,14.3
2018-07-05T06:45:02.756Z,14.3
2018-07-05T07:00:03.093Z,14.3
2018-07-05T07:15:02.373Z,14.4
2018-07-05T07:30:02.802Z,14.4
2018-07-05T07:45:03.119Z,14.4
2018-07-05T08:00:02.437Z,14.5
2018-07-05T08:15:02.793Z,14.6
2018-07-05T08:30:03.407Z,14.6
2018-07-05T08:45:02.784Z,14.6
2018-07-05T09:00:03.102Z,14.7
2018-07-05T09:15:02.425Z,14.8
2018-07-05T09:30:02.863Z,14.8
2018-07-05T09:45:03.221Z,14.9
2018-07-05T10:00:02.535Z,15
2018-07-05T10:15:02.873Z,15.1
2018-07-05T10:30:03.324Z,15.1
2018-07-05T10:45:02.674Z,15.2
2018-07-05T11:00:02.974Z,15.3
2018-07-05T11:15:02.306Z,15.4
2018-07-05T11:30:02.683Z,15.4
2018-07-05T11:45:02.998Z,15.5
2018-07-05T12:00:02.393Z,15.6
2018-07-05T12:15:02.721Z,15.7
2018-07-05T12:30:03.112Z,15.8
2018-07-05T12:45:02.433Z,15.8
2018-07-05T13:00:02.803Z,15.8
2018-07-05T13:15:03.088Z,15.9
2018-07-05T13:30:02.563Z,15.9
2018-07-05T13:45:02.903Z,15.9
2018-07-05T14:00:03.238Z,15.9
2018-07-05T14:15:02.620Z,15.9
2018-07-05T14:30:03.016Z,15.9
2018-07-05T14:45:02.354Z,15.9
2018-07-05T15:00:02.691Z,15.9
2018-07-05T15:15:02.994Z,15.8
2018-07-05T15:30:02.382Z,15.8
2018-07-05T15:45:02.708Z,15.7
2018-07-05T16:00:03.009Z,15.6
2018-07-05T16:15:02.349Z,15.6
2018-07-05T16:30:02.784Z,15.6
2018-07-05T16:45:03.101Z,15.5
2018-07-05T17:00:02.500Z,15.4
2018-07-05T17:15:02.803Z,15.4
2018-07-05T17:30:03.235Z,15.3
2018-07-05T17:45:02.580Z,15.2
2018-07-05T18:00:02.874Z,15.2
2018-07-05T18:15:03.193Z,15.1
2018-07-05T18:30:02.655Z,15.1
2018-07-05T18:45:02.976Z,15
2018-07-05T19:00:02.287Z,14.9
2018-07-05T19:15:02.574Z,14.9
2018-07-05T19:30:02.992Z,14.9
2018-07-05T19:45:02.341Z,14.8
2018-07-05T20:00:02.689Z,14.8
2018-07-05T20:15:03.077Z,14.8
2018-07-05T20:30:02.532Z,14.7
2018-07-05T20:45:02.851Z,14.6
2018-07-05T21:00:03.228Z,14.6
2018-07-05T21:15:02.602Z,14.6
2018-07-05T21:30:02.983Z,14.5
2018-07-05T21:45:02.404Z,14.4
2018-07-05T22:00:02.734Z,14.4
2018-07-05T22:15:03.079Z,14.4
2018-07-05T22:30:02.459Z,14.4
2018-07-05T22:45:02.877Z,14.3
2018-07-05T23:00:03.257Z,14.3
2018-07-05T23:15:02.687Z,14.2
2018-07-05T23:30:03.114Z,14.2
2018-07-05T23:45:02.455Z,14.2
